createdAt,value
2022-10-25T00:00:52.040Z,94.18
2022-10-25T00:03:40.742Z,93.45
2022-10-25T00:06:29.775Z,96.53
2022-10-25T00:09:18.799Z,97.28
2022-10-25T00:12:01.027Z,98.05
2022-10-25T00:14:49.646Z,95.72
2022-10-25T00:17:32.041Z,98.00
2022-10-25T00:20:21.775Z,94.70
2022-10-25T00:23:06.115Z,96.30
2022-10-25T00:25:54.798Z,97.07
2022-10-25T00:28:37.035Z,98.75
2022-10-25T00:31:25.800Z,97.70
2022-10-25T00:34:08.056Z,98.30
2022-10-25T00:36:56.640Z,99.25
2022-10-25T00:39:39.487Z,101.05
2022-10-25T00:42:40.124Z,103.35
2022-10-25T00:45:25.844Z,101.65
2022-10-25T00:48:21.083Z,104.50
2022-10-25T00:51:04.102Z,103.88
2022-10-25T00:53:52.630Z,105.10
2022-10-25T00:56:47.017Z,105.78
2022-10-25T00:59:35.646Z,107.15
2022-10-25T01:02:19.794Z,105.47
2022-10-25T01:05:08.648Z,106.07
2022-10-25T01:07:52.662Z,104.32
2022-10-25T01:10:41.648Z,103.05
2022-10-25T01:13:31.050Z,102.97
2022-10-25T01:16:19.641Z,99.70
2022-10-25T01:19:41.751Z,102.30
2022-10-25T01:22:30.164Z,99.20
2022-10-25T01:25:55.775Z,101.72
2022-10-25T01:28:52.725Z,99.53
2022-10-25T01:31:53.676Z,103.93
2022-10-25T01:34:58.064Z,101.70
2022-10-25T01:38:05.756Z,102.00
2022-10-25T01:41:05.198Z,102.10
2022-10-25T01:44:11.744Z,99.90
2022-10-25T01:47:03.718Z,102.18
2022-10-25T01:49:56.744Z,100.25
2022-10-25T01:52:46.111Z,101.60
2022-10-25T01:55:33.721Z,101.50
2022-10-25T01:58:40.766Z,100.68
2022-10-25T02:01:37.285Z,102.15
2022-10-25T02:04:37.815Z,103.00
2022-10-25T02:07:23.989Z,97.53
2022-10-25T02:10:18.904Z,101.38
2022-10-25T02:13:25.029Z,101.65
2022-10-25T02:16:31.747Z,100.00
2022-10-25T02:19:25.723Z,100.93
2022-10-25T02:22:12.455Z,101.95
2022-10-25T02:25:03.718Z,103.28
2022-10-25T02:27:53.660Z,100.88
2022-10-25T02:30:43.743Z,101.35
2022-10-25T02:33:32.733Z,100.18
2022-10-25T02:36:29.997Z,97.13
2022-10-25T02:39:18.728Z,100.22
2022-10-25T02:42:03.455Z,97.90
2022-10-25T02:44:52.619Z,99.28
2022-10-25T02:47:42.064Z,97.10
2022-10-25T02:50:23.921Z,94.82
2022-10-25T02:53:12.717Z,94.90
2022-10-25T02:56:13.734Z,92.85
2022-10-25T02:58:58.054Z,87.15
2022-10-25T03:01:46.801Z,78.18
2022-10-25T03:04:29.049Z,74.70
2022-10-25T03:07:17.724Z,72.43
2022-10-25T03:10:00.012Z,70.47
2022-10-25T03:12:49.096Z,67.40
2022-10-25T03:15:31.016Z,63.33
2022-10-25T03:18:20.723Z,59.53
2022-10-25T03:21:07.102Z,54.17
2022-10-25T03:23:55.716Z,56.25
2022-10-25T03:26:37.997Z,52.58
2022-10-25T03:29:26.715Z,53.05
2022-10-25T03:32:15.711Z,52.13
2022-10-25T03:34:57.925Z,52.90
2022-10-25T03:37:46.904Z,51.13
2022-10-25T03:40:35.731Z,49.90
2022-10-25T03:43:24.729Z,50.45
2022-10-25T03:46:07.226Z,47.53
2022-10-25T03:48:55.628Z,48.38
2022-10-25T03:51:44.703Z,47.90
2022-10-25T03:54:33.721Z,48.40
2022-10-25T03:57:16.073Z,48.92
2022-10-25T04:00:05.730Z,47.60
2022-10-25T04:02:58.052Z,44.30
2022-10-25T04:05:43.177Z,43.85
2022-10-25T04:08:31.005Z,43.17
2022-10-25T04:11:13.763Z,39.08
2022-10-25T04:13:55.940Z,37.85
2022-10-25T04:16:44.790Z,40.03
2022-10-25T04:19:26.943Z,39.15
2022-10-25T04:22:15.752Z,38.05
2022-10-25T04:24:57.947Z,37.10
2022-10-25T04:27:46.824Z,35.13
2022-10-25T04:30:38.028Z,34.55
2022-10-25T04:33:21.033Z,34.55
2022-10-25T04:36:09.726Z,33.83
2022-10-25T04:38:52.187Z,34.63
2022-10-25T04:41:40.717Z,33.92
2022-10-25T04:44:35.566Z,33.75
2022-10-25T04:47:24.708Z,31.15
2022-10-25T04:50:06.990Z,33.53
2022-10-25T04:52:55.723Z,31.77
2022-10-25T04:55:38.014Z,30.30
2022-10-25T04:58:28.916Z,32.38
2022-10-25T05:01:17.088Z,32.50
2022-10-25T05:04:05.806Z,33.72
2022-10-25T05:06:54.719Z,34.95
2022-10-25T05:09:46.562Z,35.40
2022-10-25T05:12:31.009Z,36.35
2022-10-25T05:15:19.721Z,37.05
2022-10-25T05:18:06.203Z,36.72
2022-10-25T05:21:05.632Z,36.92
2022-10-25T05:23:49.147Z,39.35
2022-10-25T05:26:39.721Z,36.53
2022-10-25T05:29:28.716Z,36.30
2022-10-25T05:32:16.995Z,34.83
2022-10-25T05:34:58.632Z,36.03
2022-10-25T05:37:47.269Z,37.92
2022-10-25T05:40:28.720Z,35.58
2022-10-25T05:43:23.631Z,36.22
2022-10-25T05:46:09.960Z,37.25
2022-10-25T05:48:58.626Z,35.35
2022-10-25T05:51:41.173Z,35.45
2022-10-25T05:54:31.705Z,34.75
2022-10-25T05:57:21.542Z,34.45
2022-10-25T06:00:03.630Z,33.00
2022-10-25T06:02:52.629Z,34.97
2022-10-25T06:05:35.125Z,32.05
2022-10-25T06:08:23.695Z,32.22
2022-10-25T06:11:11.007Z,35.13
2022-10-25T06:13:59.711Z,35.00
2022-10-25T06:16:42.208Z,36.40
2022-10-25T06:19:30.816Z,35.75
2022-10-25T06:22:13.026Z,36.05
2022-10-25T06:25:01.657Z,35.05
2022-10-25T06:27:50.776Z,34.83
2022-10-25T06:30:34.435Z,33.80
2022-10-25T06:33:27.128Z,38.83
2022-10-25T06:36:15.875Z,38.37
2022-10-25T06:39:07.072Z,38.80
2022-10-25T06:41:48.895Z,40.20
2022-10-25T06:44:37.683Z,36.25
2022-10-25T06:47:19.911Z,38.90
2022-10-25T06:53:02.709Z,36.78
2022-10-25T06:55:53.711Z,37.08
2022-10-25T06:58:37.629Z,40.95
2022-10-25T07:01:29.837Z,38.60
2022-10-25T07:04:12.091Z,37.90
2022-10-25T07:07:00.717Z,36.72
2022-10-25T07:09:50.018Z,37.35
2022-10-25T07:12:32.702Z,36.10
2022-10-25T07:15:21.746Z,35.70
2022-10-25T07:18:04.006Z,35.17
2022-10-25T07:20:55.695Z,37.80
2022-10-25T07:23:43.376Z,33.85
2022-10-25T07:26:41.599Z,30.85
2022-10-25T07:29:30.714Z,31.30
2022-10-25T07:32:13.359Z,30.40
2022-10-25T07:35:02.706Z,30.85
2022-10-25T07:37:45.100Z,30.52
2022-10-25T07:40:34.696Z,26.80
2022-10-25T07:43:29.574Z,26.40
2022-10-25T07:46:18.698Z,24.77
2022-10-25T07:49:07.637Z,23.40
2022-10-25T07:51:56.706Z,24.88
2022-10-25T07:54:39.066Z,25.13
2022-10-25T07:57:27.713Z,23.00
2022-10-25T08:00:10.028Z,23.15
2022-10-25T08:02:58.653Z,21.95
2022-10-25T08:05:47.700Z,19.40
2022-10-25T08:08:37.715Z,18.15
2022-10-25T08:11:20.039Z,18.77
2022-10-25T08:14:08.837Z,18.17
2022-10-25T08:16:51.031Z,19.40
2022-10-25T08:19:40.077Z,17.10
2022-10-25T08:22:21.993Z,17.27
2022-10-25T08:25:12.744Z,17.25
2022-10-25T08:27:55.127Z,17.55
2022-10-25T08:30:43.705Z,18.00
2022-10-25T08:33:32.725Z,17.13
2022-10-25T08:36:21.707Z,18.13
2022-10-25T08:39:10.623Z,18.70
2022-10-25T08:41:55.224Z,19.27
2022-10-25T08:44:43.758Z,19.67
2022-10-25T08:47:49.400Z,19.83
2022-10-25T08:50:42.777Z,17.35
2022-10-25T08:53:29.797Z,18.30
2022-10-25T08:56:21.697Z,17.65
2022-10-25T08:59:12.715Z,18.40
2022-10-25T09:02:10.805Z,17.60
2022-10-25T09:04:59.989Z,17.25
2022-10-25T09:08:12.720Z,18.27
2022-10-25T09:11:40.723Z,16.70
2022-10-25T09:15:11.797Z,16.48
2022-10-25T09:18:03.214Z,18.92
2022-10-25T09:20:53.696Z,17.73
2022-10-25T09:23:36.019Z,17.80
2022-10-25T09:26:53.705Z,15.35
2022-10-25T09:29:41.332Z,15.93
2022-10-25T09:33:01.737Z,16.45
2022-10-25T09:35:56.148Z,17.63
2022-10-25T09:38:56.741Z,19.38
2022-10-25T09:41:55.989Z,17.90
2022-10-25T09:45:12.714Z,17.85
2022-10-25T09:48:06.063Z,16.25
2022-10-25T09:51:20.709Z,17.75
2022-10-25T09:54:13.198Z,18.20
2022-10-25T09:57:01.615Z,18.63
2022-10-25T09:59:55.622Z,18.60
2022-10-25T10:02:48.324Z,17.67
2022-10-25T10:05:38.715Z,18.75
2022-10-25T10:08:27.707Z,18.30
2022-10-25T10:11:24.164Z,18.48
2022-10-25T10:14:11.705Z,18.48
2022-10-25T10:17:02.636Z,18.23
2022-10-25T10:19:52.509Z,18.48
2022-10-25T10:23:03.853Z,16.65
2022-10-25T10:25:53.634Z,17.58
2022-10-25T10:28:37.264Z,19.15
2022-10-25T10:31:26.721Z,19.02
2022-10-25T10:34:50.698Z,18.10
2022-10-25T10:37:35.380Z,19.02
2022-10-25T10:40:24.703Z,20.10
2022-10-25T10:43:13.633Z,19.65
2022-10-25T10:46:17.011Z,19.92
2022-10-25T10:49:04.697Z,19.87
2022-10-25T10:51:54.700Z,18.85
2022-10-25T10:54:42.098Z,19.20
2022-10-25T10:57:39.639Z,19.10
2022-10-25T11:00:34.030Z,20.23
2022-10-25T11:03:59.218Z,18.95
2022-10-25T11:06:43.005Z,19.88
2022-10-25T11:09:33.706Z,20.00
2022-10-25T11:12:21.183Z,18.67
2022-10-25T11:15:09.731Z,18.60
2022-10-25T11:18:05.422Z,20.90
2022-10-25T11:21:04.692Z,21.10
2022-10-25T11:24:11.032Z,19.42
2022-10-25T11:27:16.739Z,19.52
2022-10-25T11:30:10.983Z,20.15
2022-10-25T11:33:17.701Z,18.73
2022-10-25T11:36:18.738Z,19.33
2022-10-25T11:39:06.751Z,18.80
2022-10-25T11:42:03.646Z,21.45
2022-10-25T11:45:34.619Z,21.00
2022-10-25T11:48:40.629Z,21.70
2022-10-25T11:51:34.982Z,21.35
2022-10-25T11:55:04.632Z,20.40
2022-10-25T11:57:55.070Z,22.58
2022-10-25T12:01:06.872Z,22.02
2022-10-25T12:04:11.051Z,21.60
2022-10-25T12:07:05.610Z,21.65
2022-10-25T12:10:03.055Z,21.15
2022-10-25T12:13:07.707Z,21.27
2022-10-25T12:16:03.717Z,21.35
2022-10-25T12:18:56.606Z,21.77
2022-10-25T12:21:59.208Z,23.10
2022-10-25T12:25:01.600Z,22.33
2022-10-25T12:27:45.010Z,22.35
2022-10-25T12:30:34.045Z,23.45
2022-10-25T12:33:37.180Z,23.67
2022-10-25T12:36:31.698Z,25.30
2022-10-25T12:39:44.134Z,26.02
2022-10-25T12:42:38.748Z,28.17
2022-10-25T12:45:40.676Z,31.77
2022-10-25T12:48:46.836Z,29.95
2022-10-25T12:51:59.735Z,33.35
2022-10-25T12:55:02.608Z,33.20
2022-10-25T12:58:10.722Z,34.60
2022-10-25T13:01:15.184Z,35.88
2022-10-25T13:04:22.027Z,36.72
2022-10-25T13:07:14.213Z,36.33
2022-10-25T13:09:57.685Z,38.75
2022-10-25T13:12:46.902Z,35.83
2022-10-25T13:15:29.700Z,37.92
2022-10-25T13:18:40.668Z,40.17
2022-10-25T13:21:42.031Z,38.75
2022-10-25T13:24:50.707Z,38.60
2022-10-25T13:27:42.682Z,35.30
2022-10-25T13:30:32.260Z,35.65
2022-10-25T13:33:34.707Z,33.42
2022-10-25T13:36:24.672Z,33.33
2022-10-25T13:39:20.714Z,34.88
2022-10-25T13:42:17.948Z,32.13
2022-10-25T13:45:20.703Z,34.08
2022-10-25T13:48:17.685Z,33.88
2022-10-25T13:51:09.119Z,32.08
2022-10-25T13:54:00.718Z,34.08
2022-10-25T13:57:02.663Z,32.88
2022-10-25T13:59:47.742Z,32.08
2022-10-25T14:02:37.684Z,31.50
2022-10-25T14:06:04.719Z,32.42
2022-10-25T14:09:03.697Z,35.05
2022-10-25T14:11:59.703Z,31.67
2022-10-25T14:15:04.697Z,32.75
2022-10-25T14:17:53.694Z,33.15
2022-10-25T14:20:39.002Z,33.33
2022-10-25T14:23:32.732Z,34.05
2022-10-25T14:26:23.107Z,35.60
2022-10-25T14:29:22.668Z,33.58
2022-10-25T14:32:05.175Z,33.65
2022-10-25T14:34:58.583Z,33.85
2022-10-25T14:37:47.632Z,37.03
2022-10-25T14:40:45.120Z,36.78
2022-10-25T14:43:31.660Z,37.22
2022-10-25T14:46:30.786Z,37.65
2022-10-25T14:49:13.138Z,39.08
2022-10-25T14:52:04.763Z,36.30
2022-10-25T14:55:01.978Z,35.40
2022-10-25T14:57:44.724Z,38.38
2022-10-25T15:03:18.047Z,35.78
2022-10-25T15:06:08.611Z,37.60
2022-10-25T15:08:57.521Z,40.42
2022-10-25T15:12:24.589Z,38.20
2022-10-25T15:15:32.682Z,37.55
2022-10-25T15:18:23.188Z,37.90
2022-10-25T15:21:29.674Z,39.20
2022-10-25T15:24:26.689Z,40.10
2022-10-25T15:27:13.010Z,39.60
2022-10-25T15:30:01.710Z,40.42
2022-10-25T15:32:50.686Z,41.25
2022-10-25T15:35:47.703Z,42.53
2022-10-25T15:38:54.447Z,41.05
2022-10-25T15:41:43.675Z,41.42
2022-10-25T15:44:32.696Z,40.00
2022-10-25T15:47:38.688Z,41.90
2022-10-25T15:50:27.619Z,41.95
2022-10-25T15:53:19.690Z,42.83
2022-10-25T15:56:08.688Z,44.00
2022-10-25T15:58:58.641Z,42.78
2022-10-25T16:01:41.209Z,44.20
2022-10-25T16:04:29.817Z,46.88
2022-10-25T16:07:28.173Z,43.45
2022-10-25T16:10:16.597Z,43.42
2022-10-25T16:13:05.062Z,44.97
2022-10-25T16:15:53.696Z,45.38
2022-10-25T16:18:36.000Z,42.88
2022-10-25T16:21:25.670Z,44.22
2022-10-25T16:24:08.091Z,44.97
2022-10-25T16:26:58.655Z,44.28
2022-10-25T16:29:47.682Z,45.38
2022-10-25T16:32:29.854Z,46.67
2022-10-25T16:35:18.648Z,49.13
2022-10-25T16:38:01.675Z,46.05
2022-10-25T16:40:51.660Z,45.45
2022-10-25T16:43:42.137Z,45.65
2022-10-25T16:46:26.678Z,46.10
2022-10-25T16:49:19.651Z,44.80
2022-10-25T16:52:08.688Z,46.40
2022-10-25T16:54:51.001Z,47.63
2022-10-25T16:57:39.790Z,47.90
2022-10-25T17:00:28.963Z,46.70
2022-10-25T17:03:11.731Z,46.25
2022-10-25T17:06:22.059Z,45.67
2022-10-25T17:09:16.753Z,44.40
2022-10-25T17:12:02.287Z,50.63
2022-10-25T17:14:50.772Z,49.25
2022-10-25T17:17:33.114Z,49.17
2022-10-25T17:20:24.698Z,47.70
2022-10-25T17:23:07.083Z,48.00
2022-10-25T17:26:05.580Z,47.22
2022-10-25T17:28:54.589Z,46.53
2022-10-25T17:31:44.043Z,46.75
2022-10-25T17:34:25.626Z,48.00
2022-10-25T17:37:13.956Z,48.60
2022-10-25T17:39:56.737Z,46.92
2022-10-25T17:42:47.079Z,49.67
2022-10-25T17:45:29.688Z,47.17
2022-10-25T17:48:12.597Z,48.67
2022-10-25T17:51:01.609Z,51.72
2022-10-25T17:53:50.683Z,52.13
2022-10-25T17:56:41.681Z,52.20
2022-10-25T17:59:24.060Z,51.35
2022-10-25T18:02:12.765Z,51.42
2022-10-25T18:05:19.030Z,50.90
2022-10-25T18:08:03.677Z,53.67
2022-10-25T18:10:46.295Z,51.58
2022-10-25T18:13:36.655Z,53.80
2022-10-25T18:16:19.546Z,54.63
2022-10-25T18:19:10.681Z,54.00
2022-10-25T18:21:59.653Z,54.17
2022-10-25T18:24:42.099Z,56.30
2022-10-25T18:27:30.601Z,57.10
2022-10-25T18:30:19.567Z,55.80
2022-10-25T18:33:08.699Z,56.55
2022-10-25T18:35:51.114Z,58.42
2022-10-25T18:38:39.694Z,56.15
2022-10-25T18:41:31.670Z,57.10
2022-10-25T18:44:21.118Z,56.55
2022-10-25T18:47:03.706Z,60.85
2022-10-25T18:49:46.640Z,61.50
2022-10-25T18:52:35.681Z,66.15
2022-10-25T18:58:09.661Z,60.95
2022-10-25T19:00:53.088Z,58.17
2022-10-25T19:03:41.582Z,64.35
2022-10-25T19:06:37.606Z,62.03
2022-10-25T19:09:26.048Z,60.58
2022-10-25T19:12:07.585Z,62.97
2022-10-25T19:14:55.947Z,62.20
2022-10-25T19:17:37.668Z,60.75
2022-10-25T19:20:26.604Z,61.85
2022-10-25T19:23:15.681Z,60.92
2022-10-25T19:26:04.664Z,62.10
2022-10-25T19:28:46.952Z,60.70
2022-10-25T19:31:36.567Z,61.40
2022-10-25T19:34:18.932Z,61.25
2022-10-25T19:37:11.710Z,62.58
2022-10-25T19:39:56.802Z,59.17
2022-10-25T19:42:47.658Z,59.53
2022-10-25T19:45:30.194Z,60.67
2022-10-25T19:48:18.650Z,58.53
2022-10-25T19:51:00.956Z,59.60
2022-10-25T19:53:49.634Z,60.70
2022-10-25T19:56:32.219Z,59.25
2022-10-25T19:59:20.577Z,59.15
2022-10-25T20:02:09.909Z,61.10
2022-10-25T20:04:58.060Z,63.17
2022-10-25T20:07:46.848Z,59.72
2022-10-25T20:10:29.038Z,58.35
2022-10-25T20:13:17.547Z,60.13
2022-10-25T20:16:07.656Z,58.88
2022-10-25T20:18:56.574Z,62.15
2022-10-25T20:21:49.552Z,58.97
2022-10-25T20:24:31.952Z,64.00
2022-10-25T20:27:20.561Z,62.25
2022-10-25T20:30:08.946Z,61.88
2022-10-25T20:32:51.653Z,60.17
2022-10-25T20:35:47.454Z,63.38
2022-10-25T20:38:29.667Z,63.38
2022-10-25T20:41:23.747Z,62.20
2022-10-25T20:44:15.576Z,63.00
2022-10-25T20:47:03.663Z,64.20
2022-10-25T20:49:45.985Z,63.60
2022-10-25T20:52:34.783Z,63.08
2022-10-25T20:55:24.652Z,62.90
2022-10-25T20:58:07.170Z,62.00
2022-10-25T21:00:55.628Z,62.83
2022-10-25T21:03:38.193Z,62.90
2022-10-25T21:06:26.649Z,63.13
2022-10-25T21:09:14.928Z,62.45
2022-10-25T21:11:57.016Z,65.47
2022-10-25T21:14:44.974Z,65.57
2022-10-25T21:17:26.673Z,65.53
2022-10-25T21:20:15.922Z,66.35
2022-10-25T21:22:57.724Z,66.65
2022-10-25T21:25:40.530Z,68.30
2022-10-25T21:28:29.725Z,66.72
2022-10-25T21:31:21.934Z,69.68
2022-10-25T21:34:04.780Z,68.03
2022-10-25T21:36:46.785Z,67.18
2022-10-25T21:39:35.705Z,67.95
2022-10-25T21:42:17.815Z,69.60
2022-10-25T21:45:06.658Z,65.45
2022-10-25T21:47:55.670Z,67.47
2022-10-25T21:50:37.926Z,67.05
2022-10-25T21:53:26.682Z,65.22
2022-10-25T21:56:38.967Z,65.75
2022-10-25T21:59:28.532Z,65.72
2022-10-25T22:02:11.129Z,66.70
2022-10-25T22:04:59.585Z,67.55
2022-10-25T22:07:54.508Z,66.68
2022-10-25T22:10:43.714Z,65.88
2022-10-25T22:13:25.981Z,64.50
2022-10-25T22:16:41.953Z,65.78
2022-10-25T22:19:28.917Z,66.68
2022-10-25T22:22:17.543Z,66.22
2022-10-25T22:24:59.952Z,66.53
2022-10-25T22:27:48.653Z,67.45
2022-10-25T22:30:30.925Z,66.43
2022-10-25T22:33:19.553Z,66.82
2022-10-25T22:36:08.543Z,70.90
2022-10-25T22:38:57.638Z,69.28
2022-10-25T22:41:40.990Z,71.65
2022-10-25T22:44:29.689Z,77.18
2022-10-25T22:47:12.009Z,76.13
2022-10-25T22:50:00.558Z,77.32
2022-10-25T22:52:49.667Z,79.90
2022-10-25T22:55:31.870Z,77.68
2022-10-25T22:58:20.690Z,76.68
2022-10-25T23:01:12.006Z,77.03
2022-10-25T23:04:05.713Z,76.28
2022-10-25T23:07:00.496Z,76.85
2022-10-25T23:09:49.698Z,76.03
2022-10-25T23:12:32.380Z,73.85
2022-10-25T23:15:21.632Z,76.70
2022-10-25T23:18:06.939Z,75.18
2022-10-25T23:21:03.562Z,74.95
2022-10-25T23:23:53.673Z,76.10
2022-10-25T23:26:43.890Z,78.95
2022-10-25T23:29:25.689Z,93.28
2022-10-25T23:32:07.867Z,130.70
2022-10-25T23:34:57.207Z,184.07
2022-10-25T23:37:46.049Z,261.67
2022-10-25T23:40:28.673Z,254.90
2022-10-25T23:43:16.922Z,205.82
2022-10-25T23:46:00.652Z,171.70
2022-10-25T23:48:49.650Z,158.85
2022-10-25T23:51:38.556Z,158.38
2022-10-25T23:54:26.944Z,157.43
2022-10-25T23:57:08.686Z,153.90
2022-10-25T23:59:50.825Z,161.65
